createdAt,value
2023-05-16T00:00:25.884Z,97.50
2023-05-16T00:04:28.170Z,97.40
2023-05-16T00:08:30.242Z,97.60
2023-05-16T00:12:32.868Z,97.80
2023-05-16T00:16:37.093Z,97.60
2023-05-16T00:20:39.097Z,97.60
2023-05-16T00:24:41.313Z,97.60
2023-05-16T00:28:43.462Z,97.30
2023-05-16T00:32:45.408Z,97.80
2023-05-16T00:36:47.422Z,98.00
2023-05-16T00:40:50.417Z,97.90
2023-05-16T00:44:52.358Z,97.90
2023-05-16T00:48:54.533Z,97.70
2023-05-16T00:52:56.488Z,97.90
2023-05-16T00:56:58.444Z,97.90
2023-05-16T01:01:03.957Z,97.90
2023-05-16T01:05:07.329Z,97.90
2023-05-16T01:09:09.629Z,98.70
2023-05-16T01:13:30.113Z,99.00
2023-05-16T01:17:59.538Z,99.20
2023-05-16T01:22:16.421Z,99.40
2023-05-16T01:26:28.530Z,99.50
2023-05-16T01:30:40.365Z,99.10
2023-05-16T01:34:43.434Z,98.80
2023-05-16T01:39:08.760Z,98.60
2023-05-16T01:43:15.219Z,98.30
2023-05-16T01:47:20.544Z,98.00
2023-05-16T01:51:24.894Z,98.30
2023-05-16T01:55:43.840Z,98.70
2023-05-16T01:59:46.780Z,98.80
2023-05-16T02:03:48.611Z,98.70
2023-05-16T02:07:50.814Z,98.90
2023-05-16T02:11:52.871Z,99.20
2023-05-16T02:15:54.695Z,98.80
2023-05-16T02:19:56.486Z,99.10
2023-05-16T02:23:58.418Z,99.20
2023-05-16T02:28:02.158Z,99.10
2023-05-16T02:32:04.755Z,98.90
2023-05-16T02:36:07.039Z,99.00
2023-05-16T02:40:09.636Z,98.80
2023-05-16T02:44:12.095Z,98.80
2023-05-16T02:48:14.081Z,98.80
2023-05-16T02:52:16.511Z,98.80
2023-05-16T02:56:19.130Z,99.20
2023-05-16T03:00:21.982Z,99.40
2023-05-16T03:04:23.862Z,99.60
2023-05-16T03:08:26.295Z,99.70
2023-05-16T03:12:28.225Z,99.80
2023-05-16T03:16:30.434Z,99.70
2023-05-16T03:20:32.378Z,99.70
2023-05-16T03:24:34.518Z,99.50
2023-05-16T03:28:37.828Z,99.40
2023-05-16T03:32:39.835Z,99.90
2023-05-16T03:36:41.963Z,99.90
2023-05-16T03:40:43.989Z,99.90
2023-05-16T03:44:46.228Z,99.90
2023-05-16T03:48:48.156Z,99.90
2023-05-16T03:52:50.074Z,99.90
2023-05-16T03:56:52.013Z,99.90
2023-05-16T04:00:53.785Z,99.90
2023-05-16T04:04:55.547Z,99.90
2023-05-16T04:08:57.410Z,99.90
2023-05-16T04:12:59.294Z,99.90
2023-05-16T04:17:01.551Z,99.90
2023-05-16T04:21:03.694Z,99.90
2023-05-16T04:25:06.050Z,99.90
2023-05-16T04:29:08.236Z,99.70
2023-05-16T04:33:10.325Z,99.50
2023-05-16T04:37:12.485Z,99.40
2023-05-16T04:41:14.740Z,99.30
2023-05-16T04:45:16.743Z,99.40
2023-05-16T04:49:19.321Z,99.30
2023-05-16T04:53:21.507Z,99.30
2023-05-16T04:57:23.779Z,99.40
2023-05-16T05:01:25.754Z,99.50
2023-05-16T05:05:27.911Z,99.50
2023-05-16T05:09:30.011Z,99.90
2023-05-16T05:13:31.951Z,99.90
2023-05-16T05:17:34.326Z,99.90
2023-05-16T05:21:36.397Z,99.90
2023-05-16T05:25:39.468Z,99.90
2023-05-16T05:29:41.812Z,99.90
2023-05-16T05:33:43.809Z,99.90
2023-05-16T05:37:45.783Z,99.90
2023-05-16T05:41:47.841Z,99.90
2023-05-16T05:45:49.929Z,99.90
2023-05-16T05:49:51.934Z,99.90
2023-05-16T05:53:54.633Z,99.90
2023-05-16T05:57:56.609Z,99.90
2023-05-16T06:01:58.850Z,99.90
2023-05-16T06:06:00.921Z,99.90
2023-05-16T06:10:05.472Z,99.90
2023-05-16T06:14:07.734Z,99.90
2023-05-16T06:18:09.973Z,99.90
2023-05-16T06:22:12.255Z,99.90
2023-05-16T06:26:14.197Z,99.90
2023-05-16T06:30:16.305Z,99.90
2023-05-16T06:34:18.266Z,99.90
2023-05-16T06:38:20.357Z,99.90
2023-05-16T06:42:22.275Z,99.90
2023-05-16T06:46:25.056Z,99.90
2023-05-16T06:50:27.288Z,99.90
2023-05-16T06:54:29.159Z,99.90
2023-05-16T06:58:31.119Z,99.90
2023-05-16T07:02:33.255Z,99.90
2023-05-16T07:06:35.692Z,99.90
2023-05-16T07:10:38.021Z,99.90
2023-05-16T07:14:40.698Z,99.90
2023-05-16T07:18:42.644Z,99.90
2023-05-16T07:22:44.892Z,99.90
2023-05-16T07:26:46.878Z,99.90
2023-05-16T07:30:49.054Z,99.90
2023-05-16T07:34:50.975Z,99.90
2023-05-16T07:38:52.870Z,99.90
2023-05-16T07:42:57.434Z,99.90
2023-05-16T07:46:59.507Z,99.90
2023-05-16T07:51:01.504Z,99.90
2023-05-16T07:55:04.196Z,99.90
2023-05-16T07:59:06.192Z,99.90
2023-05-16T08:03:08.214Z,99.90
2023-05-16T08:07:10.750Z,99.90
2023-05-16T08:11:12.971Z,99.90
2023-05-16T08:15:14.816Z,99.90
2023-05-16T08:19:16.814Z,99.90
2023-05-16T08:23:19.367Z,99.90
2023-05-16T08:27:21.338Z,99.90
2023-05-16T08:31:23.426Z,99.90
2023-05-16T08:35:25.752Z,99.90
2023-05-16T08:39:28.011Z,99.90
2023-05-16T08:43:30.049Z,99.90
2023-05-16T08:47:33.236Z,99.90
2023-05-16T08:51:37.280Z,99.90
2023-05-16T08:56:30.151Z,99.90
2023-05-16T09:00:32.282Z,99.90
2023-05-16T09:04:34.661Z,99.90
2023-05-16T09:08:36.755Z,99.90
2023-05-16T09:12:41.211Z,99.90
2023-05-16T09:16:43.293Z,99.90
2023-05-16T09:20:50.001Z,99.90
2023-05-16T09:24:52.655Z,99.90
2023-05-16T09:28:58.074Z,99.90
2023-05-16T09:33:00.512Z,99.90
2023-05-16T09:37:02.645Z,99.90
2023-05-16T09:41:04.757Z,99.90
2023-05-16T09:45:07.251Z,99.90
2023-05-16T09:49:12.908Z,99.90
2023-05-16T09:53:15.166Z,99.90
2023-05-16T09:57:21.659Z,99.90
2023-05-16T10:01:23.949Z,99.90
2023-05-16T10:05:27.729Z,99.90
2023-05-16T10:09:32.613Z,99.90
2023-05-16T10:13:36.582Z,99.90
2023-05-16T10:17:41.710Z,99.90
2023-05-16T10:21:50.770Z,99.90
2023-05-16T10:25:55.220Z,99.90
2023-05-16T10:29:58.726Z,99.90
2023-05-16T10:34:01.048Z,99.90
2023-05-16T10:38:04.147Z,99.90
2023-05-16T10:42:08.056Z,99.90
2023-05-16T10:46:11.361Z,99.90
2023-05-16T10:50:13.303Z,99.90
2023-05-16T10:54:18.326Z,99.90
2023-05-16T10:58:38.552Z,99.90
2023-05-16T11:02:41.718Z,99.90
2023-05-16T11:06:51.613Z,99.90
2023-05-16T11:11:36.670Z,99.90
2023-05-16T11:15:38.721Z,99.90
2023-05-16T11:19:49.238Z,99.90
2023-05-16T11:24:32.664Z,99.90
2023-05-16T11:28:35.074Z,99.90
2023-05-16T11:32:38.966Z,99.90
2023-05-16T11:36:41.201Z,99.90
2023-05-16T11:40:44.575Z,99.90
2023-05-16T11:44:46.704Z,99.90
2023-05-16T11:48:48.947Z,99.90
2023-05-16T11:52:57.430Z,99.90
2023-05-16T11:56:59.780Z,99.90
2023-05-16T12:01:04.746Z,99.90
2023-05-16T12:05:09.020Z,99.90
2023-05-16T12:09:17.595Z,99.90
2023-05-16T12:13:21.380Z,99.90
2023-05-16T12:17:23.720Z,99.90
2023-05-16T12:21:26.396Z,99.90
2023-05-16T12:25:28.855Z,99.90
2023-05-16T12:29:31.912Z,99.90
2023-05-16T12:33:37.756Z,99.90
2023-05-16T12:37:39.840Z,99.90
2023-05-16T12:41:43.277Z,99.90
2023-05-16T12:45:52.906Z,99.90
2023-05-16T12:49:55.608Z,99.90
2023-05-16T12:54:09.406Z,99.90
2023-05-16T12:58:15.198Z,99.90
2023-05-16T13:02:18.876Z,99.90
2023-05-16T13:06:21.449Z,99.90
2023-05-16T13:10:23.650Z,99.90
2023-05-16T13:14:25.749Z,99.90
2023-05-16T13:18:27.799Z,99.90
2023-05-16T13:22:29.614Z,99.90
2023-05-16T13:26:31.443Z,99.90
2023-05-16T13:30:33.725Z,99.90
2023-05-16T13:34:35.836Z,99.90
2023-05-16T13:38:37.893Z,99.90
2023-05-16T13:42:39.997Z,99.90
2023-05-16T13:46:42.198Z,99.90
2023-05-16T13:50:44.784Z,99.90
2023-05-16T13:54:47.158Z,99.90
2023-05-16T13:59:02.170Z,99.80
2023-05-16T14:03:06.550Z,99.90
2023-05-16T14:07:08.636Z,99.80
2023-05-16T14:11:10.498Z,99.90
2023-05-16T14:15:12.463Z,99.50
2023-05-16T14:19:17.344Z,99.50
2023-05-16T14:23:21.171Z,99.90
2023-05-16T14:27:23.219Z,99.90
2023-05-16T14:31:25.227Z,99.20
2023-05-16T14:35:27.638Z,99.60
2023-05-16T14:39:29.823Z,99.40
2023-05-16T14:43:31.873Z,99.10
2023-05-16T14:47:33.955Z,99.90
2023-05-16T14:51:36.395Z,99.90
2023-05-16T14:55:38.557Z,99.90
2023-05-16T14:59:40.403Z,99.90
2023-05-16T15:07:47.243Z,99.90
2023-05-16T15:11:49.212Z,99.90
2023-05-16T15:15:51.507Z,99.90
2023-05-16T15:19:54.302Z,99.90
2023-05-16T15:23:56.397Z,99.90
2023-05-16T15:27:58.588Z,99.90
2023-05-16T15:32:05.761Z,99.90
2023-05-16T15:36:08.263Z,99.90
2023-05-16T15:40:11.837Z,99.90
2023-05-16T15:44:13.793Z,99.60
2023-05-16T15:48:16.231Z,99.80
2023-05-16T15:52:19.526Z,99.90
2023-05-16T15:56:22.584Z,99.90
2023-05-16T16:00:26.079Z,99.90
2023-05-16T16:04:28.047Z,99.90
2023-05-16T16:08:30.011Z,99.90
2023-05-16T16:12:31.939Z,99.90
2023-05-16T16:16:34.076Z,99.90
2023-05-16T16:20:36.170Z,99.90
2023-05-16T16:24:38.116Z,99.90
2023-05-16T16:28:40.188Z,99.90
2023-05-16T16:32:42.188Z,99.90
2023-05-16T16:36:44.193Z,99.30
2023-05-16T16:40:46.452Z,99.20
2023-05-16T16:44:49.049Z,99.60
2023-05-16T16:48:52.368Z,99.50
2023-05-16T16:52:54.846Z,98.60
2023-05-16T16:56:56.996Z,99.00
2023-05-16T17:00:59.364Z,99.10
2023-05-16T17:05:01.312Z,99.20
2023-05-16T17:09:05.629Z,99.90
2023-05-16T17:13:10.436Z,99.90
2023-05-16T17:17:12.418Z,99.40
2023-05-16T17:21:14.344Z,99.90
2023-05-16T17:25:16.405Z,99.90
2023-05-16T17:29:18.607Z,99.70
2023-05-16T17:33:20.676Z,99.90
2023-05-16T17:37:22.677Z,99.70
2023-05-16T17:41:24.801Z,99.40
2023-05-16T17:45:30.146Z,99.40
2023-05-16T17:49:32.582Z,99.90
2023-05-16T17:53:34.687Z,99.90
2023-05-16T17:57:36.802Z,99.20
2023-05-16T18:01:38.969Z,99.30
2023-05-16T18:05:41.353Z,99.00
2023-05-16T18:09:43.546Z,98.50
2023-05-16T18:13:46.378Z,98.10
2023-05-16T18:17:49.078Z,98.80
2023-05-16T18:21:51.325Z,98.50
2023-05-16T18:25:54.059Z,98.50
2023-05-16T18:29:56.048Z,98.60
2023-05-16T18:33:58.401Z,98.10
2023-05-16T18:38:00.640Z,98.00
2023-05-16T18:42:03.464Z,96.70
2023-05-16T18:46:05.742Z,97.10
2023-05-16T18:50:08.318Z,97.10
2023-05-16T18:54:10.197Z,97.40
2023-05-16T18:58:12.116Z,96.70
2023-05-16T19:02:13.992Z,96.30
2023-05-16T19:06:15.949Z,95.60
2023-05-16T19:10:18.113Z,96.00
2023-05-16T19:14:20.523Z,95.60
2023-05-16T19:18:22.454Z,95.50
2023-05-16T19:22:24.480Z,95.30
2023-05-16T19:26:26.735Z,95.40
2023-05-16T19:30:28.964Z,95.80
2023-05-16T19:34:31.288Z,95.50
2023-05-16T19:38:33.466Z,95.20
2023-05-16T19:42:35.595Z,95.10
2023-05-16T19:46:38.474Z,94.70
2023-05-16T19:50:41.106Z,95.20
2023-05-16T19:54:43.675Z,94.90
2023-05-16T19:58:47.545Z,95.10
2023-05-16T20:02:50.132Z,95.90
2023-05-16T20:06:52.026Z,95.60
2023-05-16T20:10:54.413Z,95.20
2023-05-16T20:14:56.405Z,95.30
2023-05-16T20:18:58.587Z,95.50
2023-05-16T20:23:00.702Z,95.30
2023-05-16T20:27:02.879Z,95.10
2023-05-16T20:31:05.102Z,94.60
2023-05-16T20:35:10.044Z,94.50
2023-05-16T20:39:12.271Z,94.00
2023-05-16T20:43:14.226Z,94.30
2023-05-16T20:47:17.039Z,94.30
2023-05-16T20:51:19.105Z,94.00
2023-05-16T20:55:21.320Z,93.10
2023-05-16T20:59:24.726Z,92.60
2023-05-16T21:03:26.760Z,92.20
2023-05-16T21:07:28.683Z,91.90
2023-05-16T21:11:32.941Z,92.10
2023-05-16T21:15:35.010Z,92.00
2023-05-16T21:19:38.610Z,92.70
2023-05-16T21:23:40.533Z,92.50
2023-05-16T21:27:42.462Z,92.90
2023-05-16T21:31:44.508Z,93.20
2023-05-16T21:35:47.190Z,92.60
2023-05-16T21:39:49.159Z,92.50
2023-05-16T21:43:51.065Z,92.40
2023-05-16T21:47:53.200Z,92.10
2023-05-16T21:51:55.421Z,91.40
2023-05-16T21:55:57.418Z,91.80
2023-05-16T21:59:59.604Z,92.80
2023-05-16T22:04:01.779Z,92.60
2023-05-16T22:08:03.925Z,92.40
2023-05-16T22:12:06.183Z,92.70
2023-05-16T22:16:08.349Z,93.10
2023-05-16T22:20:11.684Z,92.70
2023-05-16T22:24:13.564Z,92.10
2023-05-16T22:28:15.569Z,91.40
2023-05-16T22:32:17.574Z,91.90
2023-05-16T22:36:19.596Z,91.40
2023-05-16T22:40:21.613Z,91.30
2023-05-16T22:44:23.983Z,91.10
2023-05-16T22:48:26.064Z,90.40
2023-05-16T22:52:28.019Z,90.90
2023-05-16T22:56:29.906Z,90.80
2023-05-16T23:00:31.797Z,91.00
2023-05-16T23:04:33.779Z,90.80
2023-05-16T23:08:35.772Z,90.30
2023-05-16T23:12:37.761Z,90.20
2023-05-16T23:16:39.644Z,90.10
2023-05-16T23:20:41.811Z,90.10
2023-05-16T23:24:43.657Z,90.60
2023-05-16T23:28:45.705Z,91.40
2023-05-16T23:32:47.730Z,91.40
2023-05-16T23:36:49.706Z,91.60
2023-05-16T23:40:51.920Z,91.20
2023-05-16T23:44:53.868Z,91.30
2023-05-16T23:48:57.292Z,91.40
2023-05-16T23:52:59.434Z,91.80
2023-05-16T23:57:01.497Z,91.90
